M/V Divine Mercy — WDE2637 — position and weather

sailwx.info

Track history (hours):
 
Tides and Currents Weather Stations Pressure Air Temp Water Temp Dewpoint Dewpoint Depression Visibility Wind Speed Wind Dir Waves Ship Positions

M/V Divine Mercy

Owner: Marquette Transportation Company Gulf-Inland, LLC, Jefferson, LA. More information available from US FCC via Universal Licensing System and Coast Guard Vessel Documentation Center.

Last reported at 2018-Jul-18 13:43 UTC. Time now 2018-Jul-18 23:44 UTC.
Position N 28°54' W 095°22'.

Length 22 m; draft 2.7 m.

Type: Towing. MMSI: 367327630.

Date/timePositionNaut miles runAvg speedWind from/ knotsBaromVisibWave heightAir tempDewpointWater temp
2018-Jul-18 13:43N 28°54' W 095°22'1 1.8
2018-Jul-18 13:23N 28°54' W 095°23'1 3.3
2018-Jul-18 12:57N 28°54' W 095°24'1 2.8
2018-Jul-18 12:28N 28°54' W 095°23'1 1.0
2018-Jul-18 11:47N 28°54' W 095°22'0 0.8
2018-Jul-18 11:11N 28°54' W 095°23'1 1.0
2018-Jul-18 10:30N 28°54' W 095°22'1 1.6
2018-Jul-18 09:54N 28°55' W 095°21'1 3.4
2018-Jul-18 09:29N 28°56' W 095°20'2 4.7
2018-Jul-18 09:00N 28°57' W 095°18'2 4.7
2018-Jul-18 08:30N 28°59' W 095°16'3 5.2
2018-Jul-18 08:00N 29°01' W 095°14'2 4.9
2018-Jul-18 07:30N 29°03' W 095°13'2 4.9
2018-Jul-18 07:01N 29°05' W 095°12'2 4.4
2018-Jul-18 06:30N 29°07' W 095°11'2 4.4
2018-Jul-18 06:00N 29°09' W 095°09'3 5.1
2018-Jul-18 05:30N 29°10' W 095°07'2 5.0
2018-Jul-18 05:00N 29°12' W 095°04'2 4.9
2018-Jul-18 04:30N 29°13' W 095°02'2 4.9
2018-Jul-18 04:00N 29°15' W 095°00'2 5.0
2018-Jul-18 03:30N 29°17' W 094°58'2 4.9
2018-Jul-18 03:00N 29°17' W 094°56'2 3.7
2018-Jul-18 02:30N 29°17' W 094°54'2 4.2
2018-Jul-18 02:00N 29°19' W 094°52'2 3.9
2018-Jul-18 01:30N 29°20' W 094°50'3 4.6
2018-Jul-18 00:56N 29°22' W 094°48'5 6.6
2018-Jul-18 00:08N 29°27' W 094°51'2 6.6
2018-Jul-17 23:53N 29°28' W 094°51'3 6.6
2018-Jul-17 23:26N 29°31' W 094°53'3 6.7
2018-Jul-17 23:00N 29°33' W 094°55'3 5.9
2018-Jul-17 22:29N 29°36' W 094°57'3 6.0
2018-Jul-17 22:00N 29°39' W 094°58'3 6.2
2018-Jul-17 21:30N 29°41' W 094°59'3 5.6
2018-Jul-17 20:59N 29°44' W 095°02'3 5.9
2018-Jul-17 20:28N 29°46' W 095°04'1 0.9
2018-Jul-17 19:08N 29°46' W 095°06'0 0.4
2018-Jul-17 18:49N 29°46' W 095°06'0 0.1
2018-Jul-17 18:28N 29°46' W 095°06'0 0.3
2018-Jul-17 17:14N 29°46' W 095°05'1 0.3
2018-Jul-17 14:44N 29°46' W 095°05'2 5.4
2018-Jul-17 14:25N 29°44' W 095°03'2 5.8
2018-Jul-17 14:00N 29°43' W 095°01'3 6.1
2018-Jul-17 13:31N 29°41' W 094°59'4 7.2
2018-Jul-17 13:00N 29°37' W 094°57'4 7.3
2018-Jul-17 12:30N 29°34' W 094°55'4 7.1
2018-Jul-17 12:00N 29°31' W 094°53'4 7.1
2018-Jul-17 11:31N 29°28' W 094°51'4 7.1
2018-Jul-17 11:00N 29°25' W 094°49'3 6.8
2018-Jul-17 10:31N 29°22' W 094°48'3 5.5
2018-Jul-17 10:00N 29°20' W 094°51'3 6.6
2018-Jul-17 09:31N 29°17' W 094°53'2 3.2
2018-Jul-17 08:59N 29°17' W 094°55'3 6.7
2018-Jul-17 08:31N 29°17' W 094°59'3 5.9
2018-Jul-17 08:01N 29°14' W 095°01'3 5.3
2018-Jul-17 07:30N 29°12' W 095°03'3 5.5
2018-Jul-17 07:00N 29°11' W 095°06'3 5.4
2018-Jul-17 06:30N 29°09' W 095°08'2 4.4
2018-Jul-17 06:00N 29°08' W 095°10'2 4.9
2018-Jul-17 05:31N 29°06' W 095°12'2 4.4
2018-Jul-17 05:00N 29°04' W 095°13'2 4.3
2018-Jul-17 04:30N 29°02' W 095°14'2 4.4
2018-Jul-17 04:00N 29°00' W 095°15'2 4.5
2018-Jul-17 03:29N 28°59' W 095°17'2 4.4
2018-Jul-17 03:00N 28°57' W 095°18'2 4.8
2018-Jul-17 02:30N 28°55' W 095°20'1 2.9
2018-Jul-17 02:00N 28°54' W 095°22'1 1.4
2018-Jul-17 01:30N 28°54' W 095°22'1 0.7
2018-Jul-17 00:46N 28°54' W 095°23'1 4.6
2018-Jul-17 00:29N 28°54' W 095°22'2 2.2
2018-Jul-16 23:30N 28°54' W 095°24'0 0.0
2018-Jul-16 22:58N 28°54' W 095°24'41 3.0
2018-Jul-16 09:23N 28°37' W 096°07'2 4.2
2018-Jul-16 08:50N 28°37' W 096°10'2 3.9
2018-Jul-16 08:27N 28°35' W 096°11'2 4.4
2018-Jul-16 08:00N 28°34' W 096°12'  
2018-Jul-13 21:09N 28°55' W 095°20'1 4.7
2018-Jul-13 21:00N 28°56' W 095°20'3 5.4
2018-Jul-13 20:29N 28°58' W 095°17'3 5.2
2018-Jul-13 20:00N 28°59' W 095°15'3 5.2
2018-Jul-13 19:31N 29°02' W 095°14'2 4.9
2018-Jul-13 19:01N 29°04' W 095°13'2 4.9
2018-Jul-13 18:30N 29°06' W 095°12'2 3.7
2018-Jul-13 18:01N 29°08' W 095°11'3 5.0
2018-Jul-13 17:31N 29°09' W 095°09'2 4.4
2018-Jul-13 17:00N 29°10' W 095°06'2 4.8
2018-Jul-13 16:30N 29°12' W 095°04'3 5.5
2018-Jul-13 16:00N 29°14' W 095°02'3 5.8
2018-Jul-13 15:31N 29°16' W 094°60'3 5.8
2018-Jul-13 15:00N 29°17' W 094°57'6 6.0
2018-Jul-13 14:00N 29°20' W 094°51'3 6.0
2018-Jul-13 13:28N 29°22' W 094°48'5 2.0
2018-Jul-13 10:47N 29°26' W 094°43'2 6.6
2018-Jul-13 10:29N 29°24' W 094°45'3 7.0
2018-Jul-13 09:59N 29°22' W 094°48'8 6.2
2018-Jul-13 08:44N 29°29' W 094°52'2 7.3
2018-Jul-13 08:30N 29°31' W 094°53'4 7.7
2018-Jul-13 08:00N 29°34' W 094°55'4 7.8
2018-Jul-13 07:31N 29°37' W 094°58'4 8.7
2018-Jul-13 07:01N 29°41' W 094°59'5 7.5
2018-Jul-13 06:23N 29°44' W 095°03'3 6.2
2018-Jul-13 05:53N 29°47' W 095°04'0 0.3
2018-Jul-13 05:24N 29°47' W 095°04'2 0.4
2018-Jul-13 01:29N 29°46' W 095°05'3 5.5
2018-Jul-13 00:59N 29°44' W 095°03'3 5.5
2018-Jul-13 00:30N 29°42' W 095°01'3 6.0
2018-Jul-13 00:00N 29°40' W 094°58'3 6.9
2018-Jul-12 23:30N 29°37' W 094°57'3 7.0
2018-Jul-12 23:00N 29°34' W 094°55'4 7.0
2018-Jul-12 22:30N 29°31' W 094°53'4 6.8
2018-Jul-12 21:55N 29°27' W 094°51'3 6.9
2018-Jul-12 21:30N 29°25' W 094°49'4 3.5
2018-Jul-12 20:29N 29°23' W 094°53'2 3.7
2018-Jul-12 20:00N 29°22' W 094°54'0 0.0
2018-Jul-12 19:29N 29°22' W 094°54'1 1.8
2018-Jul-12 19:00N 29°22' W 094°53'2 4.5
2018-Jul-12 18:30N 29°22' W 094°51'3 5.6
2018-Jul-12 18:00N 29°22' W 094°48'2 0.6
2018-Jul-12 15:23N 29°21' W 094°49'2 5.8
2018-Jul-12 15:00N 29°20' W 094°51'3 5.8
2018-Jul-12 14:30N 29°17' W 094°53'2 4.9
2018-Jul-12 14:00N 29°17' W 094°56'3 5.0
2018-Jul-12 13:29N 29°16' W 094°59'2 5.2
2018-Jul-12 13:00N 29°15' W 095°01'2 5.0
2018-Jul-12 12:31N 29°13' W 095°02'3 5.3
2018-Jul-12 12:00N 29°11' W 095°05'2 4.2
2018-Jul-12 11:30N 29°10' W 095°07'3 6.0
2018-Jul-12 11:00N 29°08' W 095°10'3 5.6
2018-Jul-12 10:31N 29°06' W 095°12'3 5.9
2018-Jul-12 09:59N 29°03' W 095°13'33 5.0
2018-Jul-12 03:21N 28°44' W 095°44'  
2018-Jul-09 10:56N 28°59' W 095°16'2 4.3
2018-Jul-09 10:29N 29°00' W 095°15'2 4.2
2018-Jul-09 10:00N 29°02' W 095°14'2 4.1
2018-Jul-09 09:30N 29°04' W 095°13'2 4.0
2018-Jul-09 09:00N 29°06' W 095°12'2 3.8
2018-Jul-09 08:30N 29°07' W 095°11'2 3.4
2018-Jul-09 08:00N 29°09' W 095°10'2 4.7
2018-Jul-09 07:30N 29°10' W 095°08'2 4.8
2018-Jul-09 07:00N 29°11' W 095°05'2 4.8
2018-Jul-09 06:30N 29°12' W 095°03'2 4.7
2018-Jul-09 06:00N 29°14' W 095°01'2 4.9
2018-Jul-09 05:30N 29°16' W 094°59'2 4.7
2018-Jul-09 05:00N 29°17' W 094°57'3 5.1
2018-Jul-09 04:30N 29°17' W 094°54'3 5.3
2018-Jul-09 04:00N 29°19' W 094°52'10 3.7
2018-Jul-09 01:19N 29°25' W 094°43'0 0.1
2018-Jul-09 00:53N 29°26' W 094°43'11 3.6
2018-Jul-08 21:53N 29°32' W 094°53'3 9.4
2018-Jul-08 21:30N 29°34' W 094°56'5 9.1
2018-Jul-08 21:00N 29°39' W 094°58'4 8.8
2018-Jul-08 20:30N 29°42' W 095°01'5 2.0
2018-Jul-08 17:44N 29°46' W 095°05'2 1.5
2018-Jul-08 16:34N 29°47' W 095°04'1 4.4
2018-Jul-08 16:23N 29°47' W 095°05'2 5.1
2018-Jul-08 15:57N 29°44' W 095°04'3 6.3
2018-Jul-08 15:30N 29°43' W 095°01'3 6.5
2018-Jul-08 15:00N 29°40' W 094°59'4 7.7
2018-Jul-08 14:30N 29°37' W 094°57'4 7.7
2018-Jul-08 14:00N 29°33' W 094°55'  
Track history (hours):
 
Tides and Currents Weather Stations Pressure Air Temp Water Temp Dewpoint Dewpoint Depression Visibility Wind Speed Wind Dir Waves Ship Positions

M/V Divine Mercy

Owner: Marquette Transportation Company Gulf-Inland, LLC, Jefferson, LA. More information available from US FCC via Universal Licensing System and Coast Guard Vessel Documentation Center.

Last reported at 2018-Jul-18 13:43 UTC. Time now 2018-Jul-18 23:44 UTC.
Position N 28°54' W 095°22'.

Length 22 m; draft 2.7 m.

Type: Towing. MMSI: 367327630.

Date/timePositionNaut miles runAvg speedWind from/ knotsBaromVisibWave heightAir tempDewpointWater temp
2018-Jul-18 13:43N 28°54' W 095°22'1 1.8
2018-Jul-18 13:23N 28°54' W 095°23'1 3.3
2018-Jul-18 12:57N 28°54' W 095°24'1 2.8
2018-Jul-18 12:28N 28°54' W 095°23'1 1.0
2018-Jul-18 11:47N 28°54' W 095°22'0 0.8
2018-Jul-18 11:11N 28°54' W 095°23'1 1.0
2018-Jul-18 10:30N 28°54' W 095°22'1 1.6
2018-Jul-18 09:54N 28°55' W 095°21'1 3.4
2018-Jul-18 09:29N 28°56' W 095°20'2 4.7
2018-Jul-18 09:00N 28°57' W 095°18'2 4.7
2018-Jul-18 08:30N 28°59' W 095°16'3 5.2
2018-Jul-18 08:00N 29°01' W 095°14'2 4.9
2018-Jul-18 07:30N 29°03' W 095°13'2 4.9
2018-Jul-18 07:01N 29°05' W 095°12'2 4.4
2018-Jul-18 06:30N 29°07' W 095°11'2 4.4
2018-Jul-18 06:00N 29°09' W 095°09'3 5.1
2018-Jul-18 05:30N 29°10' W 095°07'2 5.0
2018-Jul-18 05:00N 29°12' W 095°04'2 4.9
2018-Jul-18 04:30N 29°13' W 095°02'2 4.9
2018-Jul-18 04:00N 29°15' W 095°00'2 5.0
2018-Jul-18 03:30N 29°17' W 094°58'2 4.9
2018-Jul-18 03:00N 29°17' W 094°56'2 3.7
2018-Jul-18 02:30N 29°17' W 094°54'2 4.2
2018-Jul-18 02:00N 29°19' W 094°52'2 3.9
2018-Jul-18 01:30N 29°20' W 094°50'3 4.6
2018-Jul-18 00:56N 29°22' W 094°48'5 6.6
2018-Jul-18 00:08N 29°27' W 094°51'2 6.6
2018-Jul-17 23:53N 29°28' W 094°51'3 6.6
2018-Jul-17 23:26N 29°31' W 094°53'3 6.7
2018-Jul-17 23:00N 29°33' W 094°55'3 5.9
2018-Jul-17 22:29N 29°36' W 094°57'3 6.0
2018-Jul-17 22:00N 29°39' W 094°58'3 6.2
2018-Jul-17 21:30N 29°41' W 094°59'3 5.6
2018-Jul-17 20:59N 29°44' W 095°02'3 5.9
2018-Jul-17 20:28N 29°46' W 095°04'1 0.9
2018-Jul-17 19:08N 29°46' W 095°06'0 0.4
2018-Jul-17 18:49N 29°46' W 095°06'0 0.1
2018-Jul-17 18:28N 29°46' W 095°06'0 0.3
2018-Jul-17 17:14N 29°46' W 095°05'1 0.3
2018-Jul-17 14:44N 29°46' W 095°05'2 5.4
2018-Jul-17 14:25N 29°44' W 095°03'2 5.8
2018-Jul-17 14:00N 29°43' W 095°01'3 6.1
2018-Jul-17 13:31N 29°41' W 094°59'4 7.2
2018-Jul-17 13:00N 29°37' W 094°57'4 7.3
2018-Jul-17 12:30N 29°34' W 094°55'4 7.1
2018-Jul-17 12:00N 29°31' W 094°53'4 7.1
2018-Jul-17 11:31N 29°28' W 094°51'4 7.1
2018-Jul-17 11:00N 29°25' W 094°49'3 6.8
2018-Jul-17 10:31N 29°22' W 094°48'3 5.5
2018-Jul-17 10:00N 29°20' W 094°51'3 6.6
2018-Jul-17 09:31N 29°17' W 094°53'2 3.2
2018-Jul-17 08:59N 29°17' W 094°55'3 6.7
2018-Jul-17 08:31N 29°17' W 094°59'3 5.9
2018-Jul-17 08:01N 29°14' W 095°01'3 5.3
2018-Jul-17 07:30N 29°12' W 095°03'3 5.5
2018-Jul-17 07:00N 29°11' W 095°06'3 5.4
2018-Jul-17 06:30N 29°09' W 095°08'2 4.4
2018-Jul-17 06:00N 29°08' W 095°10'2 4.9
2018-Jul-17 05:31N 29°06' W 095°12'2 4.4
2018-Jul-17 05:00N 29°04' W 095°13'2 4.3
2018-Jul-17 04:30N 29°02' W 095°14'2 4.4
2018-Jul-17 04:00N 29°00' W 095°15'2 4.5
2018-Jul-17 03:29N 28°59' W 095°17'2 4.4
2018-Jul-17 03:00N 28°57' W 095°18'2 4.8
2018-Jul-17 02:30N 28°55' W 095°20'1 2.9
2018-Jul-17 02:00N 28°54' W 095°22'1 1.4
2018-Jul-17 01:30N 28°54' W 095°22'1 0.7
2018-Jul-17 00:46N 28°54' W 095°23'1 4.6
2018-Jul-17 00:29N 28°54' W 095°22'2 2.2
2018-Jul-16 23:30N 28°54' W 095°24'0 0.0
2018-Jul-16 22:58N 28°54' W 095°24'41 3.0
2018-Jul-16 09:23N 28°37' W 096°07'2 4.2
2018-Jul-16 08:50N 28°37' W 096°10'2 3.9
2018-Jul-16 08:27N 28°35' W 096°11'2 4.4
2018-Jul-16 08:00N 28°34' W 096°12'  
2018-Jul-13 21:09N 28°55' W 095°20'1 4.7
2018-Jul-13 21:00N 28°56' W 095°20'3 5.4
2018-Jul-13 20:29N 28°58' W 095°17'3 5.2
2018-Jul-13 20:00N 28°59' W 095°15'3 5.2
2018-Jul-13 19:31N 29°02' W 095°14'2 4.9
2018-Jul-13 19:01N 29°04' W 095°13'2 4.9
2018-Jul-13 18:30N 29°06' W 095°12'2 3.7
2018-Jul-13 18:01N 29°08' W 095°11'3 5.0
2018-Jul-13 17:31N 29°09' W 095°09'2 4.4
2018-Jul-13 17:00N 29°10' W 095°06'2 4.8
2018-Jul-13 16:30N 29°12' W 095°04'3 5.5
2018-Jul-13 16:00N 29°14' W 095°02'3 5.8
2018-Jul-13 15:31N 29°16' W 094°60'3 5.8
2018-Jul-13 15:00N 29°17' W 094°57'6 6.0
2018-Jul-13 14:00N 29°20' W 094°51'3 6.0
2018-Jul-13 13:28N 29°22' W 094°48'5 2.0
2018-Jul-13 10:47N 29°26' W 094°43'2 6.6
2018-Jul-13 10:29N 29°24' W 094°45'3 7.0
2018-Jul-13 09:59N 29°22' W 094°48'8 6.2
2018-Jul-13 08:44N 29°29' W 094°52'2 7.3
2018-Jul-13 08:30N 29°31' W 094°53'4 7.7
2018-Jul-13 08:00N 29°34' W 094°55'4 7.8
2018-Jul-13 07:31N 29°37' W 094°58'4 8.7
2018-Jul-13 07:01N 29°41' W 094°59'5 7.5
2018-Jul-13 06:23N 29°44' W 095°03'3 6.2
2018-Jul-13 05:53N 29°47' W 095°04'0 0.3
2018-Jul-13 05:24N 29°47' W 095°04'2 0.4
2018-Jul-13 01:29N 29°46' W 095°05'3 5.5
2018-Jul-13 00:59N 29°44' W 095°03'3 5.5
2018-Jul-13 00:30N 29°42' W 095°01'3 6.0
2018-Jul-13 00:00N 29°40' W 094°58'3 6.9
2018-Jul-12 23:30N 29°37' W 094°57'3 7.0
2018-Jul-12 23:00N 29°34' W 094°55'4 7.0
2018-Jul-12 22:30N 29°31' W 094°53'4 6.8
2018-Jul-12 21:55N 29°27' W 094°51'3 6.9
2018-Jul-12 21:30N 29°25' W 094°49'4 3.5
2018-Jul-12 20:29N 29°23' W 094°53'2 3.7
2018-Jul-12 20:00N 29°22' W 094°54'0 0.0
2018-Jul-12 19:29N 29°22' W 094°54'1 1.8
2018-Jul-12 19:00N 29°22' W 094°53'2 4.5
2018-Jul-12 18:30N 29°22' W 094°51'3 5.6
2018-Jul-12 18:00N 29°22' W 094°48'2 0.6
2018-Jul-12 15:23N 29°21' W 094°49'2 5.8
2018-Jul-12 15:00N 29°20' W 094°51'3 5.8
2018-Jul-12 14:30N 29°17' W 094°53'2 4.9
2018-Jul-12 14:00N 29°17' W 094°56'3 5.0
2018-Jul-12 13:29N 29°16' W 094°59'2 5.2
2018-Jul-12 13:00N 29°15' W 095°01'2 5.0
2018-Jul-12 12:31N 29°13' W 095°02'3 5.3
2018-Jul-12 12:00N 29°11' W 095°05'2 4.2
2018-Jul-12 11:30N 29°10' W 095°07'3 6.0
2018-Jul-12 11:00N 29°08' W 095°10'3 5.6
2018-Jul-12 10:31N 29°06' W 095°12'3 5.9
2018-Jul-12 09:59N 29°03' W 095°13'33 5.0
2018-Jul-12 03:21N 28°44' W 095°44'  
2018-Jul-09 10:56N 28°59' W 095°16'2 4.3
2018-Jul-09 10:29N 29°00' W 095°15'2 4.2
2018-Jul-09 10:00N 29°02' W 095°14'2 4.1
2018-Jul-09 09:30N 29°04' W 095°13'2 4.0
2018-Jul-09 09:00N 29°06' W 095°12'2 3.8
2018-Jul-09 08:30N 29°07' W 095°11'2 3.4
2018-Jul-09 08:00N 29°09' W 095°10'2 4.7
2018-Jul-09 07:30N 29°10' W 095°08'2 4.8
2018-Jul-09 07:00N 29°11' W 095°05'2 4.8
2018-Jul-09 06:30N 29°12' W 095°03'2 4.7
2018-Jul-09 06:00N 29°14' W 095°01'2 4.9
2018-Jul-09 05:30N 29°16' W 094°59'2 4.7
2018-Jul-09 05:00N 29°17' W 094°57'3 5.1
2018-Jul-09 04:30N 29°17' W 094°54'3 5.3
2018-Jul-09 04:00N 29°19' W 094°52'10 3.7
2018-Jul-09 01:19N 29°25' W 094°43'0 0.1
2018-Jul-09 00:53N 29°26' W 094°43'11 3.6
2018-Jul-08 21:53N 29°32' W 094°53'3 9.4
2018-Jul-08 21:30N 29°34' W 094°56'5 9.1
2018-Jul-08 21:00N 29°39' W 094°58'4 8.8
2018-Jul-08 20:30N 29°42' W 095°01'5 2.0
2018-Jul-08 17:44N 29°46' W 095°05'2 1.5
2018-Jul-08 16:34N 29°47' W 095°04'1 4.4
2018-Jul-08 16:23N 29°47' W 095°05'2 5.1
2018-Jul-08 15:57N 29°44' W 095°04'3 6.3
2018-Jul-08 15:30N 29°43' W 095°01'3 6.5
2018-Jul-08 15:00N 29°40' W 094°59'4 7.7
2018-Jul-08 14:30N 29°37' W 094°57'4 7.7
2018-Jul-08 14:00N 29°33' W 094°55'  

Dump ship's entire track history